sensor_id;sensor_type;location;lat;lon;timestamp;temperature;humidity
56046;DHT22;41913;51.030;3.706;2022-12-07T00:01:26;6.70;99.90
56046;DHT22;41913;51.030;3.706;2022-12-07T00:03:55;6.70;99.90
56046;DHT22;41913;51.030;3.706;2022-12-07T00:06:30;6.80;99.90
56046;DHT22;41913;51.030;3.706;2022-12-07T00:08:57;6.80;99.90
56046;DHT22;41913;51.030;3.706;2022-12-07T00:11:25;6.80;99.90
56046;DHT22;41913;51.030;3.706;2022-12-07T00:13:55;6.80;99.90
56046;DHT22;41913;51.030;3.706;2022-12-07T00:16:25;6.80;99.90
56046;DHT22;41913;51.030;3.706;2022-12-07T00:18:51;6.80;99.90
56046;DHT22;41913;51.030;3.706;2022-12-07T00:21:24;6.90;99.90
56046;DHT22;41913;51.030;3.706;2022-12-07T00:23:52;6.80;99.90
56046;DHT22;41913;51.030;3.706;2022-12-07T00:26:20;6.90;99.90
56046;DHT22;41913;51.030;3.706;2022-12-07T00:28:56;6.90;99.90
56046;DHT22;41913;51.030;3.706;2022-12-07T00:31:26;6.70;99.90
56046;DHT22;41913;51.030;3.706;2022-12-07T00:34:01;6.50;99.90
56046;DHT22;41913;51.030;3.706;2022-12-07T00:36:30;6.40;99.90
56046;DHT22;41913;51.030;3.706;2022-12-07T00:41:30;6.80;99.90
56046;DHT22;41913;51.030;3.706;2022-12-07T00:43:57;6.90;99.90
56046;DHT22;41913;51.030;3.706;2022-12-07T00:46:26;7.00;99.90
56046;DHT22;41913;51.030;3.706;2022-12-07T00:48:59;6.90;99.90
56046;DHT22;41913;51.030;3.706;2022-12-07T00:53:54;6.80;99.90
56046;DHT22;41913;51.030;3.706;2022-12-07T00:56:34;6.70;99.90
56046;DHT22;41913;51.030;3.706;2022-12-07T00:59:03;6.70;99.90
56046;DHT22;41913;51.030;3.706;2022-12-07T01:01:33;6.70;99.90
56046;DHT22;41913;51.030;3.706;2022-12-07T01:04:02;6.50;99.90
56046;DHT22;41913;51.030;3.706;2022-12-07T01:06:28;6.50;99.90
56046;DHT22;41913;51.030;3.706;2022-12-07T01:08:56;6.50;99.90
56046;DHT22;41913;51.030;3.706;2022-12-07T01:11:25;6.30;99.90
56046;DHT22;41913;51.030;3.706;2022-12-07T01:13:54;6.20;99.90
56046;DHT22;41913;51.030;3.706;2022-12-07T01:16:20;6.20;99.90
56046;DHT22;41913;51.030;3.706;2022-12-07T01:21:20;6.40;99.90
56046;DHT22;41913;51.030;3.706;2022-12-07T01:23:51;6.30;99.90
56046;DHT22;41913;51.030;3.706;2022-12-07T01:28:48;6.10;99.90
56046;DHT22;41913;51.030;3.706;2022-12-07T01:31:17;6.10;99.90
56046;DHT22;41913;51.030;3.706;2022-12-07T01:33:47;6.00;99.90
56046;DHT22;41913;51.030;3.706;2022-12-07T01:41:09;5.90;99.90
56046;DHT22;41913;51.030;3.706;2022-12-07T01:48:50;5.80;99.90
56046;DHT22;41913;51.030;3.706;2022-12-07T01:51:15;5.90;99.90
56046;DHT22;41913;51.030;3.706;2022-12-07T01:53:47;6.00;99.90
56046;DHT22;41913;51.030;3.706;2022-12-07T01:58:43;6.10;99.90
56046;DHT22;41913;51.030;3.706;2022-12-07T02:01:09;6.00;99.90
56046;DHT22;41913;51.030;3.706;2022-12-07T02:03:40;5.80;99.90
56046;DHT22;41913;51.030;3.706;2022-12-07T02:06:06;5.70;99.90
56046;DHT22;41913;51.030;3.706;2022-12-07T02:08:32;5.60;99.90
56046;DHT22;41913;51.030;3.706;2022-12-07T02:11:00;5.50;99.90
56046;DHT22;41913;51.030;3.706;2022-12-07T02:13:33;5.40;99.90
56046;DHT22;41913;51.030;3.706;2022-12-07T02:19:04;5.20;99.90
56046;DHT22;41913;51.030;3.706;2022-12-07T02:29:37;5.10;99.90
56046;DHT22;41913;51.030;3.706;2022-12-07T02:32:12;5.10;99.90
56046;DHT22;41913;51.030;3.706;2022-12-07T02:39:48;5.20;99.90
56046;DHT22;41913;51.030;3.706;2022-12-07T02:42:19;5.20;99.90
56046;DHT22;41913;51.030;3.706;2022-12-07T02:44:51;5.20;99.90
56046;DHT22;41913;51.030;3.706;2022-12-07T02:47:23;5.30;99.90
56046;DHT22;41913;51.030;3.706;2022-12-07T02:49:51;5.20;99.90
56046;DHT22;41913;51.030;3.706;2022-12-07T02:52:19;5.30;99.90
56046;DHT22;41913;51.030;3.706;2022-12-07T02:54:46;5.40;99.90
56046;DHT22;41913;51.030;3.706;2022-12-07T02:57:59;5.50;99.90
56046;DHT22;41913;51.030;3.706;2022-12-07T03:00:03;5.50;99.90
56046;DHT22;41913;51.030;3.706;2022-12-07T03:18:24;5.60;99.90
56046;DHT22;41913;51.030;3.706;2022-12-07T03:20:52;5.50;99.90
56046;DHT22;41913;51.030;3.706;2022-12-07T03:23:23;5.60;99.90
56046;DHT22;41913;51.030;3.706;2022-12-07T03:25:56;5.70;99.90
56046;DHT22;41913;51.030;3.706;2022-12-07T03:28:27;5.70;99.90
56046;DHT22;41913;51.030;3.706;2022-12-07T03:33:29;5.70;99.90
56046;DHT22;41913;51.030;3.706;2022-12-07T03:38:58;5.60;99.90
56046;DHT22;41913;51.030;3.706;2022-12-07T03:43:54;5.50;99.90
56046;DHT22;41913;51.030;3.706;2022-12-07T03:49:06;5.20;99.90
56046;DHT22;41913;51.030;3.706;2022-12-07T03:51:45;5.00;99.90
56046;DHT22;41913;51.030;3.706;2022-12-07T03:54:15;5.00;99.90
56046;DHT22;41913;51.030;3.706;2022-12-07T03:56:43;5.10;99.90
56046;DHT22;41913;51.030;3.706;2022-12-07T03:59:10;5.30;99.90
56046;DHT22;41913;51.030;3.706;2022-12-07T04:01:37;5.30;99.90
56046;DHT22;41913;51.030;3.706;2022-12-07T04:04:03;5.30;99.90
56046;DHT22;41913;51.030;3.706;2022-12-07T04:06:30;5.20;99.90
56046;DHT22;41913;51.030;3.706;2022-12-07T04:08:59;5.10;99.90
56046;DHT22;41913;51.030;3.706;2022-12-07T04:11:24;5.00;99.90
56046;DHT22;41913;51.030;3.706;2022-12-07T04:13:50;4.90;99.90
56046;DHT22;41913;51.030;3.706;2022-12-07T04:16:37;4.90;99.90
56046;DHT22;41913;51.030;3.706;2022-12-07T04:19:03;4.80;99.90
56046;DHT22;41913;51.030;3.706;2022-12-07T04:21:28;4.90;99.90
56046;DHT22;41913;51.030;3.706;2022-12-07T04:23:56;4.90;99.90
56046;DHT22;41913;51.030;3.706;2022-12-07T04:26:24;5.00;99.90
56046;DHT22;41913;51.030;3.706;2022-12-07T04:28:56;5.10;99.90
56046;DHT22;41913;51.030;3.706;2022-12-07T04:31:23;5.10;99.90
56046;DHT22;41913;51.030;3.706;2022-12-07T04:33:51;5.10;99.90
56046;DHT22;41913;51.030;3.706;2022-12-07T04:36:20;5.20;99.90
56046;DHT22;41913;51.030;3.706;2022-12-07T04:38:46;5.20;99.90
56046;DHT22;41913;51.030;3.706;2022-12-07T04:41:12;5.20;99.90
56046;DHT22;41913;51.030;3.706;2022-12-07T04:43:39;5.20;99.90
56046;DHT22;41913;51.030;3.706;2022-12-07T04:46:04;5.20;99.90
56046;DHT22;41913;51.030;3.706;2022-12-07T04:48:31;5.10;99.90
56046;DHT22;41913;51.030;3.706;2022-12-07T04:51:00;5.10;99.90
56046;DHT22;41913;51.030;3.706;2022-12-07T04:53:25;5.10;99.90
56046;DHT22;41913;51.030;3.706;2022-12-07T04:55:56;5.00;99.90
56046;DHT22;41913;51.030;3.706;2022-12-07T04:58:22;4.90;99.90
56046;DHT22;41913;51.030;3.706;2022-12-07T05:01:00;4.90;99.90
56046;DHT22;41913;51.030;3.706;2022-12-07T05:05:57;5.10;99.90
56046;DHT22;41913;51.030;3.706;2022-12-07T05:08:26;5.20;99.90
56046;DHT22;41913;51.030;3.706;2022-12-07T05:10:52;5.20;99.90
56046;DHT22;41913;51.030;3.706;2022-12-07T05:13:18;5.40;99.90
56046;DHT22;41913;51.030;3.706;2022-12-07T05:15:43;5.30;99.90
56046;DHT22;41913;51.030;3.706;2022-12-07T05:18:12;5.20;99.90
56046;DHT22;41913;51.030;3.706;2022-12-07T05:23:06;5.20;99.90
56046;DHT22;41913;51.030;3.706;2022-12-07T05:25:35;5.30;99.90
56046;DHT22;41913;51.030;3.706;2022-12-07T05:28:04;5.40;99.90
56046;DHT22;41913;51.030;3.706;2022-12-07T05:30:30;5.50;99.90
56046;DHT22;41913;51.030;3.706;2022-12-07T05:33:02;5.60;99.90
56046;DHT22;41913;51.030;3.706;2022-12-07T05:35:30;5.50;99.90
56046;DHT22;41913;51.030;3.706;2022-12-07T05:37:58;5.30;99.90
56046;DHT22;41913;51.030;3.706;2022-12-07T05:40:25;5.20;99.90
56046;DHT22;41913;51.030;3.706;2022-12-07T05:42:54;5.20;99.90
56046;DHT22;41913;51.030;3.706;2022-12-07T05:45:19;5.10;99.90
56046;DHT22;41913;51.030;3.706;2022-12-07T05:50:16;5.00;99.90
56046;DHT22;41913;51.030;3.706;2022-12-07T05:52:42;4.80;99.90
56046;DHT22;41913;51.030;3.706;2022-12-07T06:00:05;4.50;99.90
56046;DHT22;41913;51.030;3.706;2022-12-07T06:02:32;4.50;99.90
56046;DHT22;41913;51.030;3.706;2022-12-07T06:04:59;4.40;99.90
56046;DHT22;41913;51.030;3.706;2022-12-07T06:07:25;4.50;99.90
56046;DHT22;41913;51.030;3.706;2022-12-07T06:09:58;4.50;99.90
56046;DHT22;41913;51.030;3.706;2022-12-07T06:12:27;4.60;99.90
56046;DHT22;41913;51.030;3.706;2022-12-07T06:14:59;4.70;99.90
56046;DHT22;41913;51.030;3.706;2022-12-07T06:17:24;4.80;99.90
56046;DHT22;41913;51.030;3.706;2022-12-07T06:19:52;4.80;99.90
56046;DHT22;41913;51.030;3.706;2022-12-07T06:22:17;4.90;99.90
56046;DHT22;41913;51.030;3.706;2022-12-07T06:24:43;4.80;99.90
56046;DHT22;41913;51.030;3.706;2022-12-07T06:27:11;4.90;99.90
56046;DHT22;41913;51.030;3.706;2022-12-07T06:29:38;4.90;99.90
56046;DHT22;41913;51.030;3.706;2022-12-07T06:32:04;4.90;99.90
56046;DHT22;41913;51.030;3.706;2022-12-07T06:34:33;4.80;99.90
56046;DHT22;41913;51.030;3.706;2022-12-07T06:39:29;4.80;99.90
56046;DHT22;41913;51.030;3.706;2022-12-07T06:42:01;4.80;99.90
56046;DHT22;41913;51.030;3.706;2022-12-07T06:44:26;4.70;99.90
56046;DHT22;41913;51.030;3.706;2022-12-07T06:46:54;4.70;99.90
56046;DHT22;41913;51.030;3.706;2022-12-07T06:49:19;4.60;99.90
56046;DHT22;41913;51.030;3.706;2022-12-07T06:51:45;4.60;99.90
56046;DHT22;41913;51.030;3.706;2022-12-07T06:54:12;4.60;99.90
56046;DHT22;41913;51.030;3.706;2022-12-07T06:56:39;4.60;99.90
56046;DHT22;41913;51.030;3.706;2022-12-07T07:01:34;4.90;99.90
56046;DHT22;41913;51.030;3.706;2022-12-07T07:04:00;5.00;99.90
56046;DHT22;41913;51.030;3.706;2022-12-07T07:06:29;5.10;99.90
56046;DHT22;41913;51.030;3.706;2022-12-07T07:08:54;5.10;99.90
56046;DHT22;41913;51.030;3.706;2022-12-07T07:11:22;5.00;99.90
56046;DHT22;41913;51.030;3.706;2022-12-07T07:13:48;5.00;99.90
56046;DHT22;41913;51.030;3.706;2022-12-07T07:16:14;4.90;99.90
56046;DHT22;41913;51.030;3.706;2022-12-07T07:18:39;4.90;99.90
56046;DHT22;41913;51.030;3.706;2022-12-07T07:21:08;4.90;99.90
56046;DHT22;41913;51.030;3.706;2022-12-07T07:23:45;4.80;99.90
56046;DHT22;41913;51.030;3.706;2022-12-07T07:26:20;4.80;99.90
56046;DHT22;41913;51.030;3.706;2022-12-07T07:28:53;4.80;99.90
56046;DHT22;41913;51.030;3.706;2022-12-07T07:31:22;4.70;99.90
56046;DHT22;41913;51.030;3.706;2022-12-07T07:33:47;4.70;99.90
56046;DHT22;41913;51.030;3.706;2022-12-07T07:36:13;4.70;99.90
56046;DHT22;41913;51.030;3.706;2022-12-07T07:38:39;4.80;99.90
56046;DHT22;41913;51.030;3.706;2022-12-07T07:41:06;4.80;99.90
56046;DHT22;41913;51.030;3.706;2022-12-07T07:43:32;4.90;99.90
56046;DHT22;41913;51.030;3.706;2022-12-07T07:45:57;5.10;99.90
56046;DHT22;41913;51.030;3.706;2022-12-07T07:48:23;5.30;99.90
56046;DHT22;41913;51.030;3.706;2022-12-07T07:50:56;5.40;99.90
56046;DHT22;41913;51.030;3.706;2022-12-07T07:53:21;5.50;99.90
56046;DHT22;41913;51.030;3.706;2022-12-07T07:55:55;5.40;99.90
56046;DHT22;41913;51.030;3.706;2022-12-07T07:58:22;5.40;99.90
56046;DHT22;41913;51.030;3.706;2022-12-07T08:00:48;5.40;99.90
56046;DHT22;41913;51.030;3.706;2022-12-07T08:03:14;5.30;99.90
56046;DHT22;41913;51.030;3.706;2022-12-07T08:05:39;5.20;99.90
56046;DHT22;41913;51.030;3.706;2022-12-07T08:08:11;5.30;99.90
56046;DHT22;41913;51.030;3.706;2022-12-07T08:10:40;5.10;99.90
56046;DHT22;41913;51.030;3.706;2022-12-07T08:13:11;5.10;99.90
56046;DHT22;41913;51.030;3.706;2022-12-07T08:15:38;5.10;99.90
56046;DHT22;41913;51.030;3.706;2022-12-07T08:18:05;5.10;99.90
56046;DHT22;41913;51.030;3.706;2022-12-07T08:20:31;5.10;99.90
56046;DHT22;41913;51.030;3.706;2022-12-07T08:22:57;5.30;99.90
56046;DHT22;41913;51.030;3.706;2022-12-07T08:25:23;5.40;99.90
56046;DHT22;41913;51.030;3.706;2022-12-07T08:27:49;5.50;99.90
56046;DHT22;41913;51.030;3.706;2022-12-07T08:30:16;5.50;99.90
56046;DHT22;41913;51.030;3.706;2022-12-07T08:32:43;5.60;99.90
56046;DHT22;41913;51.030;3.706;2022-12-07T08:35:09;5.80;99.90
56046;DHT22;41913;51.030;3.706;2022-12-07T08:37:38;5.70;99.90
56046;DHT22;41913;51.030;3.706;2022-12-07T08:40:08;5.90;99.90
56046;DHT22;41913;51.030;3.706;2022-12-07T08:42:37;6.10;99.90
56046;DHT22;41913;51.030;3.706;2022-12-07T08:45:08;6.30;99.90
56046;DHT22;41913;51.030;3.706;2022-12-07T08:50:10;6.60;99.90
56046;DHT22;41913;51.030;3.706;2022-12-07T08:55:10;6.90;99.90
56046;DHT22;41913;51.030;3.706;2022-12-07T08:57:37;7.00;99.90
56046;DHT22;41913;51.030;3.706;2022-12-07T09:00:04;6.90;99.90
56046;DHT22;41913;51.030;3.706;2022-12-07T09:02:40;7.10;99.90
56046;DHT22;41913;51.030;3.706;2022-12-07T09:05:05;7.20;99.90
56046;DHT22;41913;51.030;3.706;2022-12-07T09:07:34;7.30;99.90
56046;DHT22;41913;51.030;3.706;2022-12-07T09:10:03;7.70;99.90
56046;DHT22;41913;51.030;3.706;2022-12-07T09:12:40;8.50;99.90
56046;DHT22;41913;51.030;3.706;2022-12-07T09:15:16;9.60;99.90
56046;DHT22;41913;51.030;3.706;2022-12-07T09:20:51;11.00;99.90
56046;DHT22;41913;51.030;3.706;2022-12-07T09:23:17;11.40;99.90
56046;DHT22;41913;51.030;3.706;2022-12-07T09:25:48;11.30;99.90
56046;DHT22;41913;51.030;3.706;2022-12-07T09:28:14;10.90;99.90
56046;DHT22;41913;51.030;3.706;2022-12-07T09:30:44;10.10;99.90
56046;DHT22;41913;51.030;3.706;2022-12-07T09:33:27;9.60;99.90
56046;DHT22;41913;51.030;3.706;2022-12-07T09:35:53;9.30;99.90
56046;DHT22;41913;51.030;3.706;2022-12-07T09:38:23;8.80;99.90
56046;DHT22;41913;51.030;3.706;2022-12-07T09:40:56;8.50;99.90
56046;DHT22;41913;51.030;3.706;2022-12-07T09:43:27;8.20;99.90
56046;DHT22;41913;51.030;3.706;2022-12-07T09:45:56;8.00;99.90
56046;DHT22;41913;51.030;3.706;2022-12-07T09:48:37;7.50;99.90
56046;DHT22;41913;51.030;3.706;2022-12-07T09:51:20;7.20;99.90
56046;DHT22;41913;51.030;3.706;2022-12-07T09:53:47;7.00;99.90
56046;DHT22;41913;51.030;3.706;2022-12-07T09:56:18;7.10;99.90
56046;DHT22;41913;51.030;3.706;2022-12-07T09:58:46;7.50;99.90
56046;DHT22;41913;51.030;3.706;2022-12-07T10:01:21;7.70;99.90
56046;DHT22;41913;51.030;3.706;2022-12-07T10:04:05;7.70;99.90
56046;DHT22;41913;51.030;3.706;2022-12-07T10:06:35;7.70;99.90
56046;DHT22;41913;51.030;3.706;2022-12-07T10:09:14;7.60;99.90
56046;DHT22;41913;51.030;3.706;2022-12-07T10:14:34;7.30;99.90
56046;DHT22;41913;51.030;3.706;2022-12-07T10:17:26;7.50;99.90
56046;DHT22;41913;51.030;3.706;2022-12-07T10:19:51;7.50;99.90
56046;DHT22;41913;51.030;3.706;2022-12-07T10:22:21;7.60;99.90
56046;DHT22;41913;51.030;3.706;2022-12-07T10:24:47;7.60;99.90
56046;DHT22;41913;51.030;3.706;2022-12-07T10:27:30;7.70;99.90
56046;DHT22;41913;51.030;3.706;2022-12-07T10:29:58;7.70;99.90
56046;DHT22;41913;51.030;3.706;2022-12-07T10:32:29;7.90;99.90
56046;DHT22;41913;51.030;3.706;2022-12-07T10:35:40;8.10;99.90
56046;DHT22;41913;51.030;3.706;2022-12-07T10:37:49;8.30;99.90
56046;DHT22;41913;51.030;3.706;2022-12-07T10:40:36;8.50;99.90
56046;DHT22;41913;51.030;3.706;2022-12-07T10:43:04;8.80;99.90
56046;DHT22;41913;51.030;3.706;2022-12-07T10:45:31;9.10;99.90
56046;DHT22;41913;51.030;3.706;2022-12-07T10:53:28;9.50;99.90
56046;DHT22;41913;51.030;3.706;2022-12-07T10:56:15;9.60;99.90
56046;DHT22;41913;51.030;3.706;2022-12-07T11:01:23;8.80;99.90
56046;DHT22;41913;51.030;3.706;2022-12-07T11:06:51;8.10;99.90
56046;DHT22;41913;51.030;3.706;2022-12-07T11:17:49;7.80;99.90
56046;DHT22;41913;51.030;3.706;2022-12-07T11:20:00;8.00;99.90
56046;DHT22;41913;51.030;3.706;2022-12-07T11:22:36;8.20;99.90
56046;DHT22;41913;51.030;3.706;2022-12-07T11:25:16;8.40;99.90
56046;DHT22;41913;51.030;3.706;2022-12-07T11:30:10;8.90;99.90
56046;DHT22;41913;51.030;3.706;2022-12-07T11:38:10;9.00;99.90
56046;DHT22;41913;51.030;3.706;2022-12-07T11:40:36;8.90;99.90
56046;DHT22;41913;51.030;3.706;2022-12-07T11:48:46;8.90;99.90
56046;DHT22;41913;51.030;3.706;2022-12-07T11:51:16;8.90;99.90
56046;DHT22;41913;51.030;3.706;2022-12-07T11:56:17;9.20;99.90
56046;DHT22;41913;51.030;3.706;2022-12-07T12:06:34;9.60;99.90
56046;DHT22;41913;51.030;3.706;2022-12-07T12:09:13;9.90;99.90
56046;DHT22;41913;51.030;3.706;2022-12-07T12:22:06;9.90;99.90
56046;DHT22;41913;51.030;3.706;2022-12-07T12:27:06;9.30;99.90
56046;DHT22;41913;51.030;3.706;2022-12-07T12:32:15;9.20;99.90
56046;DHT22;41913;51.030;3.706;2022-12-07T12:42:44;9.00;99.90
56046;DHT22;41913;51.030;3.706;2022-12-07T12:45:29;9.00;99.90
56046;DHT22;41913;51.030;3.706;2022-12-07T12:47:58;9.10;99.90
56046;DHT22;41913;51.030;3.706;2022-12-07T12:55:44;9.40;99.90
56046;DHT22;41913;51.030;3.706;2022-12-07T13:00:46;9.50;99.90
56046;DHT22;41913;51.030;3.706;2022-12-07T13:03:29;9.50;99.90
56046;DHT22;41913;51.030;3.706;2022-12-07T13:08:42;9.50;99.90
56046;DHT22;41913;51.030;3.706;2022-12-07T13:16:41;9.70;99.90
56046;DHT22;41913;51.030;3.706;2022-12-07T13:21:54;9.50;99.90
56046;DHT22;41913;51.030;3.706;2022-12-07T13:24:20;9.50;99.90
56046;DHT22;41913;51.030;3.706;2022-12-07T13:26:47;9.40;99.90
56046;DHT22;41913;51.030;3.706;2022-12-07T13:29:19;9.40;99.90
56046;DHT22;41913;51.030;3.706;2022-12-07T13:31:52;9.40;99.90
56046;DHT22;41913;51.030;3.706;2022-12-07T13:36:58;9.40;99.90
56046;DHT22;41913;51.030;3.706;2022-12-07T13:39:27;9.40;99.90
56046;DHT22;41913;51.030;3.706;2022-12-07T13:41:57;9.40;99.90
56046;DHT22;41913;51.030;3.706;2022-12-07T13:44:27;9.40;99.90
56046;DHT22;41913;51.030;3.706;2022-12-07T13:49:57;9.30;99.90
56046;DHT22;41913;51.030;3.706;2022-12-07T13:52:32;9.40;99.90
56046;DHT22;41913;51.030;3.706;2022-12-07T13:55:01;9.50;99.90
56046;DHT22;41913;51.030;3.706;2022-12-07T13:57:48;9.50;99.90
56046;DHT22;41913;51.030;3.706;2022-12-07T14:00:21;9.60;99.90
56046;DHT22;41913;51.030;3.706;2022-12-07T14:06:02;9.50;99.90
56046;DHT22;41913;51.030;3.706;2022-12-07T14:11:00;9.00;99.90
56046;DHT22;41913;51.030;3.706;2022-12-07T14:13:33;8.80;99.90
56046;DHT22;41913;51.030;3.706;2022-12-07T14:18:48;8.90;99.90
56046;DHT22;41913;51.030;3.706;2022-12-07T14:21:31;8.90;99.90
56046;DHT22;41913;51.030;3.706;2022-12-07T14:24:08;9.00;99.90
56046;DHT22;41913;51.030;3.706;2022-12-07T14:26:38;8.80;99.90
56046;DHT22;41913;51.030;3.706;2022-12-07T14:31:52;8.70;99.90
56046;DHT22;41913;51.030;3.706;2022-12-07T14:34:26;8.60;99.90
56046;DHT22;41913;51.030;3.706;2022-12-07T14:36:59;8.50;99.90
56046;DHT22;41913;51.030;3.706;2022-12-07T14:39:33;8.40;99.90
56046;DHT22;41913;51.030;3.706;2022-12-07T14:41:59;8.40;99.90
56046;DHT22;41913;51.030;3.706;2022-12-07T14:47:15;8.30;99.90
56046;DHT22;41913;51.030;3.706;2022-12-07T14:50:06;8.20;99.90
56046;DHT22;41913;51.030;3.706;2022-12-07T14:52:40;8.30;99.90
56046;DHT22;41913;51.030;3.706;2022-12-07T14:58:17;8.10;99.90
56046;DHT22;41913;51.030;3.706;2022-12-07T15:00:48;8.00;99.90
56046;DHT22;41913;51.030;3.706;2022-12-07T15:03:14;8.00;99.90
56046;DHT22;41913;51.030;3.706;2022-12-07T15:05:57;8.00;99.90
56046;DHT22;41913;51.030;3.706;2022-12-07T15:08:29;7.90;99.90
56046;DHT22;41913;51.030;3.706;2022-12-07T15:10:57;8.00;99.90
56046;DHT22;41913;51.030;3.706;2022-12-07T15:13:23;8.10;99.90
56046;DHT22;41913;51.030;3.706;2022-12-07T15:16:20;8.10;99.90
56046;DHT22;41913;51.030;3.706;2022-12-07T15:18:55;8.20;99.90
56046;DHT22;41913;51.030;3.706;2022-12-07T15:21:22;8.30;99.90
56046;DHT22;41913;51.030;3.706;2022-12-07T15:23:50;8.30;99.90
56046;DHT22;41913;51.030;3.706;2022-12-07T15:26:18;8.30;99.90
56046;DHT22;41913;51.030;3.706;2022-12-07T15:28:44;8.10;99.90
56046;DHT22;41913;51.030;3.706;2022-12-07T15:31:14;7.90;99.90
56046;DHT22;41913;51.030;3.706;2022-12-07T15:36:17;7.80;99.90
56046;DHT22;41913;51.030;3.706;2022-12-07T15:38:56;7.70;99.90
56046;DHT22;41913;51.030;3.706;2022-12-07T15:41:26;7.50;99.90
56046;DHT22;41913;51.030;3.706;2022-12-07T15:43:56;7.40;99.90
56046;DHT22;41913;51.030;3.706;2022-12-07T15:46:41;7.20;99.90
56046;DHT22;41913;51.030;3.706;2022-12-07T15:49:11;7.20;99.90
56046;DHT22;41913;51.030;3.706;2022-12-07T15:51:47;6.90;99.90
56046;DHT22;41913;51.030;3.706;2022-12-07T15:54:24;6.70;99.90
56046;DHT22;41913;51.030;3.706;2022-12-07T15:57:03;6.80;99.90
56046;DHT22;41913;51.030;3.706;2022-12-07T15:59:36;6.80;99.90
56046;DHT22;41913;51.030;3.706;2022-12-07T16:02:02;6.90;99.90
56046;DHT22;41913;51.030;3.706;2022-12-07T16:04:32;6.90;99.90
56046;DHT22;41913;51.030;3.706;2022-12-07T16:07:12;6.80;99.90
56046;DHT22;41913;51.030;3.706;2022-12-07T16:09:44;6.70;99.90
56046;DHT22;41913;51.030;3.706;2022-12-07T16:12:12;6.80;99.90
56046;DHT22;41913;51.030;3.706;2022-12-07T16:14:40;6.80;99.90
56046;DHT22;41913;51.030;3.706;2022-12-07T16:17:13;6.80;99.90
56046;DHT22;41913;51.030;3.706;2022-12-07T16:19:39;6.80;99.90
56046;DHT22;41913;51.030;3.706;2022-12-07T16:22:12;6.80;99.90
56046;DHT22;41913;51.030;3.706;2022-12-07T16:24:49;7.00;99.90
56046;DHT22;41913;51.030;3.706;2022-12-07T16:27:16;7.00;99.90
56046;DHT22;41913;51.030;3.706;2022-12-07T16:29:43;6.90;99.90
56046;DHT22;41913;51.030;3.706;2022-12-07T16:32:09;6.80;99.90
56046;DHT22;41913;51.030;3.706;2022-12-07T16:34:37;6.80;99.90
56046;DHT22;41913;51.030;3.706;2022-12-07T16:37:06;6.80;99.90
56046;DHT22;41913;51.030;3.706;2022-12-07T16:39:38;6.90;99.90
56046;DHT22;41913;51.030;3.706;2022-12-07T16:42:04;6.70;99.90
56046;DHT22;41913;51.030;3.706;2022-12-07T16:44:41;6.60;99.90
56046;DHT22;41913;51.030;3.706;2022-12-07T16:47:08;6.70;99.90
56046;DHT22;41913;51.030;3.706;2022-12-07T16:49:35;6.70;99.90
56046;DHT22;41913;51.030;3.706;2022-12-07T16:52:03;6.80;99.90
56046;DHT22;41913;51.030;3.706;2022-12-07T16:55:00;6.80;99.90
56046;DHT22;41913;51.030;3.706;2022-12-07T17:00:00;6.90;99.90
56046;DHT22;41913;51.030;3.706;2022-12-07T17:02:42;6.80;99.90
56046;DHT22;41913;51.030;3.706;2022-12-07T17:05:27;6.60;99.90
56046;DHT22;41913;51.030;3.706;2022-12-07T17:10:27;6.30;99.90
56046;DHT22;41913;51.030;3.706;2022-12-07T17:12:53;6.30;99.90
56046;DHT22;41913;51.030;3.706;2022-12-07T17:15:22;6.30;99.90
56046;DHT22;41913;51.030;3.706;2022-12-07T17:17:56;6.30;99.90
56046;DHT22;41913;51.030;3.706;2022-12-07T17:20:36;6.30;99.90
56046;DHT22;41913;51.030;3.706;2022-12-07T17:23:11;6.30;99.90
56046;DHT22;41913;51.030;3.706;2022-12-07T17:25:41;6.50;99.90
56046;DHT22;41913;51.030;3.706;2022-12-07T17:28:15;6.60;99.90
56046;DHT22;41913;51.030;3.706;2022-12-07T17:30:44;6.60;99.90
56046;DHT22;41913;51.030;3.706;2022-12-07T17:33:11;6.50;99.90
56046;DHT22;41913;51.030;3.706;2022-12-07T17:35:41;6.40;99.90
56046;DHT22;41913;51.030;3.706;2022-12-07T17:40:47;6.50;99.90
56046;DHT22;41913;51.030;3.706;2022-12-07T17:43:13;6.60;99.90
56046;DHT22;41913;51.030;3.706;2022-12-07T17:45:39;6.60;99.90
56046;DHT22;41913;51.030;3.706;2022-12-07T17:48:13;6.50;99.90
56046;DHT22;41913;51.030;3.706;2022-12-07T17:53:29;6.20;99.90
56046;DHT22;41913;51.030;3.706;2022-12-07T17:55:55;6.10;99.90
56046;DHT22;41913;51.030;3.706;2022-12-07T17:58:22;6.10;99.90
56046;DHT22;41913;51.030;3.706;2022-12-07T18:03:16;6.10;99.90
56046;DHT22;41913;51.030;3.706;2022-12-07T18:08:14;5.90;99.90
56046;DHT22;41913;51.030;3.706;2022-12-07T18:10:39;5.80;99.90
56046;DHT22;41913;51.030;3.706;2022-12-07T18:13:05;5.70;99.90
56046;DHT22;41913;51.030;3.706;2022-12-07T18:15:55;5.70;99.90
56046;DHT22;41913;51.030;3.706;2022-12-07T18:18:26;5.80;99.90
56046;DHT22;41913;51.030;3.706;2022-12-07T18:21:00;5.80;99.90
56046;DHT22;41913;51.030;3.706;2022-12-07T18:23:27;5.80;99.90
56046;DHT22;41913;51.030;3.706;2022-12-07T18:25:53;6.00;99.90
56046;DHT22;41913;51.030;3.706;2022-12-07T18:28:21;6.10;99.90
56046;DHT22;41913;51.030;3.706;2022-12-07T18:30:47;6.00;99.90
56046;DHT22;41913;51.030;3.706;2022-12-07T18:35:48;5.80;99.90
56046;DHT22;41913;51.030;3.706;2022-12-07T18:38:17;5.90;99.90
56046;DHT22;41913;51.030;3.706;2022-12-07T18:40:43;5.90;99.90
56046;DHT22;41913;51.030;3.706;2022-12-07T18:43:09;6.10;99.90
56046;DHT22;41913;51.030;3.706;2022-12-07T18:45:36;6.20;99.90
56046;DHT22;41913;51.030;3.706;2022-12-07T18:48:04;6.10;99.90
56046;DHT22;41913;51.030;3.706;2022-12-07T18:50:35;6.10;99.90
56046;DHT22;41913;51.030;3.706;2022-12-07T18:53:03;6.20;99.90
56046;DHT22;41913;51.030;3.706;2022-12-07T18:55:32;6.20;99.90
56046;DHT22;41913;51.030;3.706;2022-12-07T18:57:59;6.10;99.90
56046;DHT22;41913;51.030;3.706;2022-12-07T19:00:32;6.10;99.90
56046;DHT22;41913;51.030;3.706;2022-12-07T19:05:29;6.10;99.90
56046;DHT22;41913;51.030;3.706;2022-12-07T19:07:57;6.10;99.90
56046;DHT22;41913;51.030;3.706;2022-12-07T19:10:26;6.20;99.90
56046;DHT22;41913;51.030;3.706;2022-12-07T19:12:51;6.10;99.90
56046;DHT22;41913;51.030;3.706;2022-12-07T19:15:17;6.20;99.90
56046;DHT22;41913;51.030;3.706;2022-12-07T19:17:46;6.30;99.90
56046;DHT22;41913;51.030;3.706;2022-12-07T19:20:13;6.30;99.90
56046;DHT22;41913;51.030;3.706;2022-12-07T19:22:45;6.40;99.90
56046;DHT22;41913;51.030;3.706;2022-12-07T19:27:40;6.30;99.90
56046;DHT22;41913;51.030;3.706;2022-12-07T19:30:12;6.30;99.90
56046;DHT22;41913;51.030;3.706;2022-12-07T19:32:41;6.40;99.90
56046;DHT22;41913;51.030;3.706;2022-12-07T19:35:09;6.30;99.90
56046;DHT22;41913;51.030;3.706;2022-12-07T19:37:38;6.20;99.90
56046;DHT22;41913;51.030;3.706;2022-12-07T19:40:05;5.90;99.90
56046;DHT22;41913;51.030;3.706;2022-12-07T19:42:35;5.70;99.90
56046;DHT22;41913;51.030;3.706;2022-12-07T19:45:04;5.60;99.90
56046;DHT22;41913;51.030;3.706;2022-12-07T19:50:06;5.80;99.90
56046;DHT22;41913;51.030;3.706;2022-12-07T19:52:31;6.10;99.90